Time;durP1;ratioP1;P1;durP2;ratioP2;P2;SDS_P1;SDS_P2;PMS_P1;PMS_P2;Temp;Humidity;BMP_temperature;BMP_pressure;BME280_temperature;BME280_humidity;BME280_pressure;Samples;Min_cycle;Max_cycle;Signal;HPM_P1;HPM_P2
2021/10/25 00:02:22;;;;;;;12.77;8.43;;;;;;;6.84;82.57;101952.66;4957993;29;20027;-67
2021/10/25 00:04:48;;;;;;;16.73;10.47;;;;;;;6.89;82.44;101956.47;4957958;28;20023;-68
2021/10/25 00:07:13;;;;;;;18.13;10.77;;;;;;;6.93;82.20;101953.25;4956691;29;20378;-67
2021/10/25 00:09:39;;;;;;;14.07;9.50;;;;;;;6.96;82.30;101955.13;4957331;29;20038;-67
2021/10/25 00:12:05;;;;;;;10.87;9.43;;;;;;;7.05;82.15;101939.16;4957412;28;20105;-68
2021/10/25 00:14:30;;;;;;;14.60;9.70;;;;;;;7.11;82.08;101943.03;4957629;29;20030;-68
2021/10/25 00:16:55;;;;;;;18.33;10.80;;;;;;;7.21;82.02;101941.00;4958469;29;20027;-69
2021/10/25 00:19:21;;;;;;;13.87;9.60;;;;;;;7.29;81.89;101943.22;4958130;28;20023;-68
2021/10/25 00:21:47;;;;;;;15.20;9.80;;;;;;;7.33;81.71;101930.41;4958494;28;20054;-69
2021/10/25 00:24:13;;;;;;;14.93;9.90;;;;;;;7.33;81.50;101933.91;4957769;28;20031;-69
2021/10/25 00:26:38;;;;;;;14.27;9.57;;;;;;;7.40;81.44;101935.16;4957602;29;20073;-68
2021/10/25 00:29:04;;;;;;;12.57;9.07;;;;;;;7.42;81.23;101934.44;4957056;28;20416;-68
2021/10/25 00:31:29;;;;;;;12.50;8.33;;;;;;;7.50;81.14;101928.78;4954741;28;20039;-69
2021/10/25 00:33:55;;;;;;;17.10;10.57;;;;;;;7.56;80.77;101927.41;4938712;29;20042;-68
2021/10/25 00:36:20;;;;;;;15.40;10.13;;;;;;;7.70;80.32;101923.03;4939387;29;20040;-68
2021/10/25 00:38:46;;;;;;;15.43;10.17;;;;;;;7.70;80.01;101916.88;4937914;29;20071;-68
2021/10/25 00:41:11;;;;;;;14.30;10.00;;;;;;;7.74;80.21;101917.97;4938689;29;20063;-68
2021/10/25 00:43:37;;;;;;;13.63;10.00;;;;;;;7.73;80.12;101917.09;4941761;29;20015;-68
2021/10/25 00:46:06;;;;;;;13.30;9.77;;;;;;;7.73;80.25;101917.09;4953438;29;20030;-69
2021/10/25 00:48:32;;;;;;;14.33;9.40;;;;;;;7.74;80.14;101924.09;4962375;28;20134;-68
2021/10/25 00:50:57;;;;;;;14.60;9.87;;;;;;;7.79;79.84;101926.97;4961567;29;20437;-68
2021/10/25 00:53:22;;;;;;;13.20;9.27;;;;;;;7.87;79.31;101924.78;4962698;28;20038;-68
2021/10/25 00:55:48;;;;;;;16.97;10.13;;;;;;;7.89;79.37;101925.75;4962709;29;20035;-68
2021/10/25 00:58:13;;;;;;;12.77;9.97;;;;;;;7.90;79.36;101924.97;4961702;29;20398;-70
2021/10/25 01:00:39;;;;;;;16.57;10.13;;;;;;;7.92;79.06;101925.94;4958126;29;20031;-68
2021/10/25 01:03:05;;;;;;;12.43;9.60;;;;;;;7.97;78.77;101920.16;4942656;29;20035;-68
2021/10/25 01:05:31;;;;;;;12.67;9.60;;;;;;;8.02;78.59;101922.16;4942623;29;20028;-68
2021/10/25 01:07:57;;;;;;;13.03;9.40;;;;;;;8.06;78.36;101919.81;4941149;29;20047;-68
2021/10/25 01:10:23;;;;;;;18.43;10.40;;;;;;;8.07;78.74;101920.69;4958314;29;20027;-67
2021/10/25 01:12:51;;;;;;;15.90;10.57;;;;;;;8.03;78.65;101913.50;4961865;29;20026;-67
2021/10/25 01:15:17;;;;;;;15.17;10.20;;;;;;;8.03;78.43;101923.94;4961703;29;20027;-69
2021/10/25 01:17:43;;;;;;;15.67;9.17;;;;;;;8.04;78.77;101921.41;4962108;28;20374;-69
2021/10/25 01:20:11;;;;;;;12.67;9.40;;;;;;;8.06;78.58;101921.50;4961075;28;20031;-69
2021/10/25 01:22:37;;;;;;;13.07;9.27;;;;;;;8.09;78.18;101917.34;4962408;28;20378;-69
2021/10/25 01:25:04;;;;;;;12.80;8.70;;;;;;;8.13;78.15;101913.22;4961480;28;20033;-68
2021/10/25 01:27:29;;;;;;;15.43;8.90;;;;;;;8.16;77.81;101920.31;4961193;29;20114;-68
2021/10/25 01:29:55;;;;;;;13.50;8.63;;;;;;;8.23;77.64;101918.09;4961347;28;20110;-68
2021/10/25 01:32:20;;;;;;;15.23;9.50;;;;;;;8.20;77.70;101917.03;4961664;28;20062;-68
2021/10/25 01:34:45;;;;;;;16.57;10.27;;;;;;;8.18;78.13;101909.16;4961289;28;20027;-68
2021/10/25 01:37:11;;;;;;;15.73;8.63;;;;;;;8.20;77.63;101915.34;4961102;28;20101;-68
2021/10/25 01:39:36;;;;;;;15.20;10.23;;;;;;;8.21;77.83;101913.63;4959764;28;20267;-69
2021/10/25 01:42:03;;;;;;;13.40;9.20;;;;;;;8.22;77.68;101916.31;4960451;28;20039;-68
2021/10/25 01:44:28;;;;;;;15.83;9.57;;;;;;;8.25;77.52;101915.59;4961667;28;20027;-69
2021/10/25 01:46:53;;;;;;;13.10;8.73;;;;;;;8.31;77.10;101910.72;4960697;28;20038;-68
2021/10/25 01:49:19;;;;;;;13.40;9.07;;;;;;;8.31;77.35;101908.09;4960253;29;20357;-67
2021/10/25 01:51:47;;;;;;;11.50;8.53;;;;;;;8.30;78.07;101905.41;4960129;29;20408;-68
2021/10/25 01:54:13;;;;;;;12.83;8.80;;;;;;;8.32;77.23;101899.47;4959106;28;20168;-68
2021/10/25 01:56:38;;;;;;;17.53;10.27;;;;;;;8.32;77.53;101906.38;4961559;28;20229;-69
2021/10/25 01:59:06;;;;;;;11.90;8.07;;;;;;;8.32;77.35;101901.16;4960351;28;20461;-69
2021/10/25 02:01:32;;;;;;;15.67;9.23;;;;;;;8.33;77.12;101896.03;4961316;28;20035;-69
2021/10/25 02:03:57;;;;;;;14.77;9.57;;;;;;;8.33;77.61;101897.72;4960819;28;20078;-69
2021/10/25 02:06:23;;;;;;;13.07;8.70;;;;;;;8.33;77.06;101897.72;4961532;28;20044;-69
2021/10/25 02:08:48;;;;;;;14.13;9.40;;;;;;;8.36;76.98;101901.41;4961276;28;20035;-69
2021/10/25 02:11:14;;;;;;;12.17;7.83;;;;;;;8.37;77.18;101894.50;4961215;28;20023;-68
2021/10/25 02:13:41;;;;;;;15.23;7.97;;;;;;;8.38;76.88;101891.06;4960053;28;20417;-68
2021/10/25 02:16:06;;;;;;;13.47;9.13;;;;;;;8.36;77.42;101893.56;4960268;28;20106;-70
2021/10/25 02:18:32;;;;;;;15.90;9.43;;;;;;;8.38;77.20;101888.44;4960792;28;20330;-68
2021/10/25 02:20:57;;;;;;;11.53;8.90;;;;;;;8.36;77.48;101895.31;4960642;29;20039;-69
2021/10/25 02:23:22;;;;;;;12.60;9.17;;;;;;;8.35;77.51;101880.47;4961218;29;20023;-68
2021/10/25 02:25:49;;;;;;;12.33;8.60;;;;;;;8.43;77.26;101878.25;4961225;28;20275;-70
2021/10/25 02:28:14;;;;;;;15.17;9.43;;;;;;;8.41;77.19;101872.94;4960881;28;20268;-69
2021/10/25 02:30:40;;;;;;;13.77;9.20;;;;;;;8.40;76.98;101871.16;4959821;28;20046;-70
2021/10/25 02:33:05;;;;;;;13.87;8.93;;;;;;;8.41;77.34;101875.56;4960341;28;20030;-69
2021/10/25 02:35:31;;;;;;;13.60;9.37;;;;;;;8.43;77.43;101871.34;4960947;28;20107;-69
2021/10/25 02:37:57;;;;;;;10.37;7.63;;;;;;;8.43;77.72;101867.81;4960854;28;20122;-69
2021/10/25 02:40:25;;;;;;;11.83;8.60;;;;;;;8.44;77.67;101867.00;4960481;28;20035;-69
2021/10/25 02:42:51;;;;;;;12.03;9.07;;;;;;;8.41;77.89;101865.13;4960602;28;20027;-69
2021/10/25 02:45:16;;;;;;;16.27;9.27;;;;;;;8.43;77.90;101866.13;4960185;28;20023;-69
2021/10/25 02:47:42;;;;;;;12.03;8.57;;;;;;;8.48;78.05;101863.75;4960076;29;20035;-69
2021/10/25 02:50:07;;;;;;;13.97;9.73;;;;;;;8.50;77.78;101863.03;4958992;28;20035;-68
2021/10/25 02:52:32;;;;;;;15.97;9.57;;;;;;;8.48;78.37;101864.63;4960510;28;20035;-69
2021/10/25 02:54:58;;;;;;;12.67;10.13;;;;;;;8.48;78.56;101855.91;4960393;28;20357;-69
2021/10/25 02:57:23;;;;;;;12.17;8.50;;;;;;;8.51;78.95;101858.72;4960587;28;20102;-68
2021/10/25 02:59:49;;;;;;;14.07;8.80;;;;;;;8.54;79.20;101871.03;4959879;28;20035;-68
2021/10/25 03:02:14;;;;;;;12.67;8.70;;;;;;;8.50;80.19;101868.25;4959280;29;20151;-68
2021/10/25 03:04:40;;;;;;;16.90;10.47;;;;;;;8.48;80.17;101861.13;4959302;28;20150;-69
2021/10/25 03:07:05;;;;;;;14.70;10.37;;;;;;;8.44;80.94;101856.56;4959168;28;20039;-68
2021/10/25 03:09:30;;;;;;;17.70;10.57;;;;;;;8.40;81.40;101850.28;4959590;28;20768;-69
2021/10/25 03:11:55;;;;;;;13.03;9.13;;;;;;;8.42;81.29;101852.97;4959395;29;20039;-68
2021/10/25 03:14:21;;;;;;;13.80;8.97;;;;;;;8.44;81.41;101851.34;4959254;29;20029;-68
2021/10/25 03:16:47;;;;;;;15.37;10.63;;;;;;;8.44;81.78;101849.63;4960336;29;20263;-70
2021/10/25 03:19:12;;;;;;;13.70;9.90;;;;;;;8.44;81.86;101847.03;4959756;28;20073;-68
2021/10/25 03:21:37;;;;;;;15.43;10.47;;;;;;;8.42;82.04;101842.53;4960181;28;20397;-67
2021/10/25 03:24:03;;;;;;;15.57;10.67;;;;;;;8.41;82.21;101851.19;4958865;28;20038;-67
2021/10/25 03:26:29;;;;;;;14.20;10.57;;;;;;;8.39;82.13;101845.88;4958821;28;20050;-67
2021/10/25 03:28:55;;;;;;;15.27;11.30;;;;;;;8.44;82.28;101853.94;4957481;29;20077;-68
2021/10/25 03:31:21;;;;;;;14.43;10.20;;;;;;;8.45;82.36;101858.34;4959048;28;20039;-67
2021/10/25 03:33:48;;;;;;;15.40;11.43;;;;;;;8.43;82.24;101850.47;4958889;28;20374;-67
2021/10/25 03:36:14;;;;;;;17.00;11.10;;;;;;;8.43;82.70;101850.47;4959127;28;20073;-68
2021/10/25 03:38:40;;;;;;;16.80;10.63;;;;;;;8.44;82.49;101851.34;4959583;28;20381;-68
2021/10/25 03:41:12;;;;;;;15.63;10.27;;;;;;;8.50;82.39;101849.06;4958829;28;20035;-67
2021/10/25 03:43:44;;;;;;;15.87;11.50;;;;;;;8.52;82.81;101852.69;4954357;29;20062;-70
2021/10/25 03:46:20;;;;;;;16.97;10.30;;;;;;;8.52;82.75;101850.97;4939904;29;20067;-70
2021/10/25 03:48:55;;;;;;;18.67;11.80;;;;;;;8.51;83.08;101846.56;4940159;29;20031;-67
2021/10/25 03:51:21;;;;;;;16.13;9.63;;;;;;;8.55;83.09;101841.50;4940501;29;20064;-67
2021/10/25 03:53:55;;;;;;;14.80;11.07;;;;;;;8.56;83.05;101838.97;4957471;29;20036;-67
2021/10/25 04:26:07;;;;;;;20.73;12.37;;;;;;;8.58;84.55;101847.78;4958036;28;20046;-67
2021/10/25 04:28:35;;;;;;;16.93;12.30;;;;;;;8.57;84.42;101843.38;4957659;29;20378;-67
2021/10/25 04:31:01;;;;;;;17.03;11.60;;;;;;;8.60;84.41;101847.88;4957464;29;20070;-67
2021/10/25 04:33:26;;;;;;;19.93;13.80;;;;;;;8.59;84.43;101854.78;4958705;28;20066;-67
2021/10/25 04:35:52;;;;;;;20.63;13.40;;;;;;;8.64;84.54;101852.44;4958711;28;20039;-66
2021/10/25 04:38:18;;;;;;;17.33;13.13;;;;;;;8.64;84.60;101845.50;4958743;28;20031;-67
2021/10/25 04:40:44;;;;;;;22.70;13.60;;;;;;;8.67;84.67;101839.53;4958349;28;20078;-65
2021/10/25 04:43:13;;;;;;;18.90;14.50;;;;;;;8.64;84.91;101837.66;4958354;28;20402;-67
2021/10/25 04:45:38;;;;;;;20.00;14.37;;;;;;;8.71;84.55;101840.59;4958555;28;20059;-67
2021/10/25 04:48:04;;;;;;;23.27;15.53;;;;;;;8.71;84.78;101840.59;4958421;28;20066;-66
2021/10/25 04:50:29;;;;;;;20.70;16.23;;;;;;;8.71;84.86;101841.47;4958508;28;20047;-66
2021/10/25 04:52:55;;;;;;;26.57;16.30;;;;;;;8.74;84.84;101838.13;4957447;28;20185;-66
2021/10/25 04:55:20;;;;;;;21.40;15.33;;;;;;;8.76;84.77;101839.09;4958452;28;20046;-66
2021/10/25 04:57:45;;;;;;;22.83;14.23;;;;;;;8.82;84.86;101835.94;4958104;29;20027;-67
2021/10/25 05:00:11;;;;;;;21.53;13.63;;;;;;;8.84;84.96;101836.91;4958156;28;20041;-66
2021/10/25 05:02:37;;;;;;;24.83;17.00;;;;;;;8.87;84.85;101831.84;4954478;29;20103;-67
2021/10/25 05:05:04;;;;;;;28.07;18.57;;;;;;;8.86;84.69;101830.94;4939271;29;20143;-66
2021/10/25 05:07:29;;;;;;;22.33;16.80;;;;;;;8.86;84.85;101828.34;4939591;29;20039;-67
2021/10/25 05:09:56;;;;;;;30.27;18.57;;;;;;;8.85;84.87;101831.75;4950209;29;20043;-66
2021/10/25 05:12:22;;;;;;;29.37;19.53;;;;;;;8.86;85.09;101828.34;4958438;28;20118;-66
2021/10/25 05:14:48;;;;;;;27.60;19.93;;;;;;;8.90;84.74;101832.00;4957547;29;20058;-68
2021/10/25 05:17:13;;;;;;;28.57;19.63;;;;;;;8.91;85.06;101829.44;4957207;28;20293;-67
2021/10/25 05:19:38;;;;;;;32.10;21.37;;;;;;;8.91;84.92;101829.44;4957148;29;20370;-65
2021/10/25 05:22:04;;;;;;;27.23;18.23;;;;;;;8.92;85.13;101832.97;4955938;28;20031;-66
2021/10/25 05:24:30;;;;;;;27.57;18.13;;;;;;;8.95;85.02;101830.50;4956309;29;20035;-66
2021/10/25 05:26:55;;;;;;;31.20;20.53;;;;;;;8.95;85.11;101830.50;4957152;29;20037;-67
2021/10/25 05:29:21;;;;;;;30.20;19.77;;;;;;;8.94;85.36;101826.09;4957492;28;20069;-66
2021/10/25 05:31:47;;;;;;;30.43;21.30;;;;;;;8.94;84.90;101820.88;4960877;28;20491;-66
2021/10/25 05:34:12;;;;;;;32.60;21.87;;;;;;;8.92;85.28;101825.13;4961389;28;20023;-66
2021/10/25 05:36:38;;;;;;;36.60;20.50;;;;;;;8.93;85.25;101814.75;4956504;28;20303;-66
2021/10/25 05:39:08;;;;;;;28.97;20.20;;;;;;;8.97;85.14;101822.75;4951843;28;20039;-67
2021/10/25 05:41:35;;;;;;;29.97;20.53;;;;;;;8.95;85.28;101824.41;4961575;28;20027;-66
2021/10/25 05:44:00;;;;;;;32.23;21.53;;;;;;;8.97;85.31;101818.41;4959260;29;20024;-66
2021/10/25 05:46:26;;;;;;;32.53;20.93;;;;;;;8.94;85.27;101815.66;4956561;28;20031;-66
2021/10/25 05:48:52;;;;;;;26.47;19.47;;;;;;;8.92;85.47;101812.97;4950700;28;20122;-65
2021/10/25 05:51:18;;;;;;;31.13;20.37;;;;;;;8.92;85.46;101812.97;4942637;29;20032;-66
2021/10/25 05:53:46;;;;;;;32.37;19.30;;;;;;;8.91;85.22;101819.00;4942664;29;20054;-65
2021/10/25 05:56:11;;;;;;;23.87;15.00;;;;;;;8.96;85.27;101819.22;4942331;29;20102;-66
2021/10/25 05:58:37;;;;;;;26.30;17.63;;;;;;;8.99;85.19;101814.19;4957796;29;20114;-66
2021/10/25 06:01:06;;;;;;;23.20;15.47;;;;;;;9.00;85.15;101815.06;4957299;29;20421;-65
2021/10/25 06:03:35;;;;;;;24.87;17.53;;;;;;;8.93;84.88;101814.75;4960551;28;20042;-66
2021/10/25 06:06:01;;;;;;;23.17;17.17;;;;;;;8.91;85.30;101812.91;4942159;29;20271;-66
2021/10/25 06:08:28;;;;;;;18.87;14.20;;;;;;;8.93;85.05;101806.91;4957275;28;20030;-65
2021/10/25 06:10:54;;;;;;;23.73;17.00;;;;;;;8.89;85.18;101804.97;4960308;28;20386;-65
2021/10/25 06:13:25;;;;;;;23.30;15.87;;;;;;;8.88;85.15;101804.88;4960019;28;20042;-66
2021/10/25 06:15:58;;;;;;;21.23;16.27;;;;;;;8.86;85.33;101811.75;4947389;29;20042;-66
2021/10/25 06:18:24;;;;;;;25.10;17.77;;;;;;;8.83;85.46;101809.88;4958084;28;20042;-66
2021/10/25 06:20:51;;;;;;;20.37;15.73;;;;;;;8.86;85.55;101815.28;4959397;29;20039;-66
2021/10/25 06:23:17;;;;;;;23.63;15.57;;;;;;;8.83;85.31;101809.00;4956246;28;20113;-66
2021/10/25 06:25:45;;;;;;;20.20;13.93;;;;;;;8.86;85.32;101810.06;4956699;29;20110;-66
2021/10/25 06:28:11;;;;;;;23.87;16.83;;;;;;;8.82;85.44;101808.09;4942987;29;20386;-66
2021/10/25 06:30:38;;;;;;;19.30;13.33;;;;;;;8.80;85.41;101810.63;4960089;29;20038;-67
2021/10/25 06:33:04;;;;;;;19.63;14.20;;;;;;;8.83;85.39;101811.63;4959843;28;20027;-67
2021/10/25 06:35:31;;;;;;;18.73;14.30;;;;;;;8.83;85.21;101804.66;4960719;28;20394;-66
2021/10/25 06:38:07;;;;;;;16.60;12.87;;;;;;;8.85;85.43;101820.41;4959168;28;20024;-68
2021/10/25 06:40:33;;;;;;;;;;;;;;;8.82;85.46;101810.69;4956900;28;20411;-66
2021/10/25 06:42:58;;;;;;;19.57;13.93;;;;;;;8.81;85.44;101814.13;4959698;29;19928;-67
2021/10/25 06:45:24;;;;;;;17.53;13.93;;;;;;;8.83;85.51;101809.00;4960260;28;20061;-68
2021/10/25 06:47:51;;;;;;;20.57;13.90;;;;;;;8.82;85.50;101813.31;4959341;28;20094;-68
2021/10/25 06:50:18;;;;;;;17.87;13.90;;;;;;;8.80;85.74;101817.56;4944210;29;20023;-67
2021/10/25 06:52:48;;;;;;;18.13;13.67;;;;;;;8.80;85.69;101807.13;4958643;28;20074;-68
2021/10/25 06:55:14;;;;;;;19.90;14.27;;;;;;;8.77;85.90;101807.84;4959687;29;20301;-68
2021/10/25 06:57:39;;;;;;;22.50;15.37;;;;;;;8.76;85.81;101819.13;4955432;28;20044;-68
2021/10/25 07:00:07;;;;;;;20.93;14.37;;;;;;;8.79;86.04;101810.56;4973114;28;20062;-68
2021/10/25 07:02:32;;;;;;;19.80;15.07;;;;;;;8.84;85.83;101822.13;4959650;29;20087;-67
2021/10/25 07:04:58;;;;;;;19.40;13.87;;;;;;;8.83;85.71;101822.94;4942961;29;20298;-68
2021/10/25 07:07:25;;;;;;;20.73;14.47;;;;;;;8.82;84.90;101823.75;4941426;29;20039;-68
2021/10/25 07:09:51;;;;;;;29.13;15.80;;;;;;;8.83;85.90;101822.94;4951946;28;20393;-67
2021/10/25 07:12:17;;;;;;;18.07;13.33;;;;;;;8.85;85.62;101826.53;4954229;28;20106;-67
2021/10/25 07:14:43;;;;;;;21.13;14.40;;;;;;;8.86;86.19;101832.66;4960486;28;20350;-67
2021/10/25 08:10:34;;;;;;;22.93;13.97;;;;;;;9.18;86.10;101856.91;4958252;28;20331;-67
2021/10/25 08:13:02;;;;;;;18.07;13.57;;;;;;;9.18;86.25;101862.13;4957155;28;20035;-66
2021/10/25 08:15:36;;;;;;;18.87;13.27;;;;;;;9.21;86.24;101863.19;4952513;29;20043;-68
2021/10/25 08:18:04;;;;;;;19.27;14.73;;;;;;;9.26;86.18;101863.41;4939578;29;20031;-68
2021/10/25 08:20:29;;;;;;;19.93;13.90;;;;;;;9.24;85.89;101859.84;4956970;28;20124;-69
2021/10/25 08:22:54;;;;;;;20.60;15.30;;;;;;;9.26;86.31;101857.28;4951350;28;20114;-68
2021/10/25 08:25:21;;;;;;;20.53;14.27;;;;;;;9.28;86.35;101864.38;4954928;28;20046;-68
2021/10/25 08:27:46;;;;;;;21.03;15.13;;;;;;;9.31;86.18;101861.03;4952663;28;20415;-69
2021/10/25 08:30:14;;;;;;;21.73;15.90;;;;;;;9.30;86.14;101856.63;4952150;28;20115;-68
2021/10/25 08:32:58;;;;;;;17.27;12.93;;;;;;;9.34;86.14;101861.19;4949405;29;20032;-68
2021/10/25 08:35:34;;;;;;;24.77;16.23;;;;;;;9.34;86.62;101862.06;4942632;28;20031;-68
2021/10/25 08:40:45;;;;;;;24.70;16.93;;;;;;;9.36;86.19;101859.56;4955619;29;20030;-69
2021/10/25 08:43:11;;;;;;;23.67;16.50;;;;;;;9.40;86.21;101856.25;4942157;29;20114;-68
2021/10/25 08:45:38;;;;;;;23.00;16.73;;;;;;;9.42;86.08;101858.94;4957128;29;20031;-71
2021/10/25 08:48:05;;;;;;;28.27;17.57;;;;;;;9.43;86.21;101863.34;4957024;28;20031;-69
2021/10/25 08:50:34;;;;;;;31.20;19.30;;;;;;;9.42;86.30;101861.56;4953968;28;20075;-68
2021/10/25 08:53:01;;;;;;;28.80;18.63;;;;;;;9.46;86.12;101861.78;4957232;28;20031;-68
2021/10/25 08:55:27;;;;;;;30.47;19.50;;;;;;;9.46;86.15;101863.50;4957408;28;20078;-68
2021/10/25 08:57:54;;;;;;;30.13;20.17;;;;;;;9.49;86.11;101867.16;4954581;28;20027;-68
2021/10/25 09:00:39;;;;;;;35.07;21.03;;;;;;;9.50;85.76;101862.84;4953082;29;20027;-67
2021/10/25 09:03:05;;;;;;;33.93;20.30;;;;;;;9.50;86.17;101860.22;4957000;28;20263;-67
2021/10/25 09:05:32;;;;;;;35.73;22.57;;;;;;;9.51;86.16;101866.38;4954712;28;20040;-67
2021/10/25 09:08:03;;;;;;;36.83;22.17;;;;;;;9.55;86.36;101858.75;4958717;29;20019;-67
2021/10/25 09:10:39;;;;;;;38.70;22.43;;;;;;;9.56;86.20;101865.75;4960433;29;20373;-68
2021/10/25 09:13:06;;;;;;;;;;;;;;;9.58;86.39;101863.19;4960465;28;20047;-68
2021/10/25 09:15:34;;;;;;;38.53;22.63;;;;;;;9.61;86.26;101859.00;4968241;28;19910;-67
2021/10/25 09:18:13;;;;;;;43.23;24.83;;;;;;;9.63;86.41;101861.72;4960065;28;20046;-66
2021/10/25 09:20:51;;;;;;;40.97;23.27;;;;;;;9.64;86.42;101863.50;4957622;28;20039;-67
2021/10/25 09:23:19;;;;;;;36.57;22.30;;;;;;;9.66;86.30;101858.34;4958240;29;20031;-67
2021/10/25 09:26:00;;;;;;;42.37;25.43;;;;;;;9.69;86.21;101848.03;4954663;28;20027;-68
2021/10/25 09:28:30;;;;;;;44.77;26.07;;;;;;;9.72;86.34;101842.97;4957508;28;20023;-67
2021/10/25 09:31:02;;;;;;;37.87;22.93;;;;;;;9.73;86.21;101843.03;4953190;28;20031;-67
2021/10/25 09:33:38;;;;;;;41.10;25.47;;;;;;;9.76;86.13;101845.81;4961728;28;20070;-67
2021/10/25 09:36:07;;;;;;;45.60;27.83;;;;;;;9.79;86.18;101845.06;4956566;28;20039;-68
2021/10/25 09:49:28;;;;;;;44.10;26.20;;;;;;;9.85;86.16;101855.78;4960207;29;20370;-68
2021/10/25 09:51:54;;;;;;;43.03;26.33;;;;;;;9.87;85.53;101854.16;4960706;28;20145;-68
2021/10/25 09:54:24;;;;;;;44.40;26.10;;;;;;;9.88;86.00;101852.44;4959832;28;20031;-68
2021/10/25 09:57:05;;;;;;;45.43;27.00;;;;;;;9.87;86.50;101848.94;4959031;28;20085;-66
2021/10/25 09:59:47;;;;;;;40.20;25.10;;;;;;;9.90;86.01;101843.84;4956361;29;20382;-67
2021/10/25 10:02:14;;;;;;;43.97;24.57;;;;;;;9.93;85.89;101842.19;4959417;29;20102;-67
2021/10/25 10:04:41;;;;;;;40.60;23.57;;;;;;;9.92;85.91;101837.78;4959182;28;20015;-67
2021/10/25 10:07:11;;;;;;;42.03;25.30;;;;;;;9.96;85.94;101848.44;4959339;28;20046;-67
2021/10/25 10:09:38;;;;;;;41.37;24.53;;;;;;;10.00;85.99;101847.78;4955464;29;20027;-69
2021/10/25 10:12:04;;;;;;;40.83;25.17;;;;;;;10.01;85.52;101839.09;4973004;28;20039;-68
2021/10/25 10:14:29;;;;;;;41.30;24.50;;;;;;;10.01;85.56;101838.19;4958461;28;20059;-67
2021/10/25 10:16:56;;;;;;;40.20;24.70;;;;;;;10.00;85.54;101839.03;4959315;28;20098;-67
2021/10/25 10:19:24;;;;;;;45.67;25.13;;;;;;;9.99;85.62;101851.22;4974478;28;20465;-67
2021/10/25 10:21:55;;;;;;;33.33;23.23;;;;;;;10.00;85.76;101849.50;4959900;28;20105;-67
2021/10/25 10:24:29;;;;;;;29.33;18.60;;;;;;;10.02;85.81;101853.06;4965254;28;20049;-67
2021/10/25 10:26:59;;;;;;;33.77;21.40;;;;;;;10.03;85.89;101849.66;4956440;28;20290;-67
2021/10/25 10:29:25;;;;;;;36.63;21.33;;;;;;;10.07;85.82;101855.94;4958579;28;20400;-67
2021/10/25 10:32:01;;;;;;;37.57;23.77;;;;;;;10.08;85.74;101844.63;4959615;28;20027;-67
2021/10/25 10:34:38;;;;;;;31.25;19.77;;;;;;;10.08;85.55;101845.50;4958092;29;20035;-66
2021/10/25 10:37:16;;;;;;;38.17;24.17;;;;;;;10.09;85.78;101841.19;4957167;29;20118;-66
2021/10/25 10:39:41;;;;;;;40.60;24.23;;;;;;;10.11;85.78;101826.44;4941037;29;20027;-67
2021/10/25 10:42:07;;;;;;;35.43;22.03;;;;;;;10.16;85.75;101833.66;4959208;28;20059;-67
2021/10/25 10:44:32;;;;;;;39.00;20.87;;;;;;;10.18;85.75;101833.75;4957960;29;20050;-67
2021/10/25 10:47:02;;;;;;;36.37;22.43;;;;;;;10.24;85.56;101838.38;4959051;28;20063;-67
2021/10/25 10:49:34;;;;;;;35.60;22.67;;;;;;;10.28;85.59;101832.47;4942402;29;20118;-68
2021/10/25 10:52:06;;;;;;;35.77;21.77;;;;;;;10.28;86.07;101825.47;4953970;28;20047;-67
2021/10/25 10:55:18;;;;;;;44.47;24.67;;;;;;;10.28;85.50;101828.09;4959310;28;20031;-67
2021/10/25 11:00:23;;;;;;;47.47;24.47;;;;;;;10.36;85.16;101831.09;4956039;28;20081;-67
2021/10/25 11:02:54;;;;;;;41.93;23.87;;;;;;;10.37;85.27;101832.88;4958810;28;20091;-69
2021/10/25 11:05:49;;;;;;;41.20;26.03;;;;;;;10.41;85.31;101828.66;4953464;28;20035;-67
2021/10/25 11:08:23;;;;;;;40.93;25.07;;;;;;;10.42;85.54;101834.00;4950831;29;20110;-67
2021/10/25 11:10:57;;;;;;;43.17;25.77;;;;;;;10.47;85.71;101833.31;4953040;28;20027;-67
2021/10/25 11:13:27;;;;;;;37.20;23.57;;;;;;;10.50;85.26;101839.59;4956795;29;20034;-67
2021/10/25 11:16:00;;;;;;;43.20;25.23;;;;;;;10.50;85.13;101841.28;4941580;29;20460;-67
2021/10/25 11:18:31;;;;;;;36.13;21.60;;;;;;;10.52;85.29;101844.91;4959019;28;20030;-67
2021/10/25 11:21:21;;;;;;;32.13;19.47;;;;;;;10.54;84.82;101832.75;4958111;28;20035;-66
2021/10/25 11:23:55;;;;;;;35.80;23.13;;;;;;;10.53;84.56;101842.31;4959123;28;20379;-67
2021/10/25 11:26:24;;;;;;;36.23;23.03;;;;;;;10.53;84.45;101844.94;4958264;28;20039;-66
2021/10/25 11:29:00;;;;;;;32.90;21.97;;;;;;;10.52;84.73;101839.66;4958437;28;20422;-66
2021/10/25 11:31:27;;;;;;;40.78;22.33;;;;;;;10.51;84.68;101848.34;4957735;29;20019;-69
2021/10/25 11:33:52;;;;;;;43.13;24.07;;;;;;;10.46;84.45;101848.13;4957118;29;20275;-66
2021/10/25 11:36:25;;;;;;;38.43;21.47;;;;;;;10.44;84.77;101845.44;4956582;29;20118;-66
2021/10/25 11:38:50;;;;;;;39.07;23.00;;;;;;;10.43;84.65;101841.03;4956876;29;20127;-67
2021/10/25 11:41:16;;;;;;;37.33;22.37;;;;;;;10.43;84.58;101838.44;4950639;28;20135;-66
2021/10/25 11:43:41;;;;;;;35.97;22.33;;;;;;;10.40;84.74;101835.63;4955012;28;20039;-67
2021/10/25 11:46:21;;;;;;;36.63;22.07;;;;;;;10.42;84.75;101838.34;4957684;29;20038;-66
2021/10/25 11:49:05;;;;;;;32.40;18.67;;;;;;;10.43;84.73;101830.56;4957838;28;20050;-67
2021/10/25 11:51:30;;;;;;;36.43;22.50;;;;;;;10.43;85.02;101824.44;4958508;28;20054;-66
2021/10/25 11:53:57;;;;;;;40.67;22.40;;;;;;;10.42;84.96;101817.41;4958209;28;20045;-66
2021/10/25 11:56:24;;;;;;;44.30;23.17;;;;;;;10.40;84.75;101821.66;4957590;28;20027;-67
2021/10/25 11:58:50;;;;;;;39.03;23.77;;;;;;;10.42;85.13;101820.03;4957508;28;20051;-66
2021/10/25 12:01:17;;;;;;;43.23;23.90;;;;;;;10.47;84.58;101815.91;4952065;28;20386;-67
2021/10/25 12:03:42;;;;;;;35.30;19.50;;;;;;;10.49;84.81;101819.47;4958014;28;20027;-66
2021/10/25 12:06:18;;;;;;;44.80;24.57;;;;;;;10.50;84.88;101813.41;4955062;29;20098;-67
2021/10/25 12:09:03;;;;;;;36.50;21.63;;;;;;;10.52;84.84;101813.47;4957081;29;20030;-66
2021/10/25 12:14:17;;;;;;;40.55;24.20;;;;;;;10.51;84.88;101815.19;4954601;28;20321;-66
2021/10/25 12:16:48;;;;;;;41.43;25.10;;;;;;;10.50;84.81;101817.72;4957968;29;20026;-66
2021/10/25 12:19:15;;;;;;;36.10;19.73;;;;;;;10.52;84.99;101822.22;4953250;29;20070;-65
2021/10/25 12:21:41;;;;;;;39.33;24.57;;;;;;;10.53;84.81;101813.53;4939210;29;20035;-67
2021/10/25 12:24:10;;;;;;;40.47;24.83;;;;;;;10.57;84.78;101809.31;4956326;28;20038;-66
2021/10/25 12:26:40;;;;;;;45.50;26.40;;;;;;;10.55;84.88;101813.59;4953853;29;20024;-66
2021/10/25 12:29:16;;;;;;;40.53;27.10;;;;;;;10.57;84.83;101809.31;4939584;29;20142;-67
2021/10/25 12:31:42;;;;;;;42.72;25.27;;;;;;;10.61;84.93;101802.50;4957249;29;20043;-67
2021/10/25 12:34:07;;;;;;;45.93;26.40;;;;;;;10.60;84.62;101809.47;4957728;28;20042;-68
2021/10/25 12:36:38;;;;;;;40.83;25.00;;;;;;;10.64;84.39;101807.88;4957171;28;20074;-67
2021/10/25 12:39:16;;;;;;;42.07;23.20;;;;;;;10.70;84.10;101811.66;4955878;29;20385;-67
2021/10/25 12:41:51;;;;;;;39.70;24.30;;;;;;;10.68;84.34;101810.69;4958095;28;20031;-66
2021/10/25 12:44:36;;;;;;;39.07;24.23;;;;;;;10.68;84.36;101808.06;4956887;29;20062;-66
2021/10/25 12:47:25;;;;;;;33.87;23.07;;;;;;;10.70;84.41;101808.13;4957685;28;20122;-66
2021/10/25 12:49:54;;;;;;;32.47;21.10;;;;;;;10.70;84.19;101803.78;4952713;28;20050;-67
2021/10/25 12:52:20;;;;;;;32.03;20.93;;;;;;;10.71;84.49;101802.97;4957953;28;20379;-67
2021/10/25 12:54:46;;;;;;;33.97;23.63;;;;;;;10.73;84.21;101803.03;4956541;28;20062;-66
2021/10/25 12:57:21;;;;;;;38.17;24.90;;;;;;;10.72;84.48;101806.50;4957689;28;20114;-67
2021/10/25 13:00:10;;;;;;;40.03;23.27;;;;;;;10.74;84.40;101798.66;4956823;28;20039;-66
2021/10/25 13:02:46;;;;;;;38.20;24.97;;;;;;;10.72;84.19;101796.88;4957389;29;20027;-69
2021/10/25 13:05:16;;;;;;;37.47;24.77;;;;;;;10.73;84.10;101797.78;4954581;29;20040;-66